createdAt,value
2023-02-21T03:41:20.630Z,6.04
2023-02-21T03:42:20.639Z,5.87
2023-02-21T03:43:20.645Z,6.48
2023-02-21T03:49:20.775Z,5.49
2023-02-21T03:50:20.787Z,5.97
2023-02-21T03:51:20.803Z,6.41
2023-02-21T03:56:22.971Z,5.80
2023-02-21T04:08:20.839Z,6.23
2023-02-21T04:09:20.838Z,6.32
2023-02-21T05:10:20.392Z,6.10
2023-02-21T05:11:20.374Z,6.27
2023-02-21T05:12:20.404Z,5.53
2023-02-21T05:13:20.349Z,5.76
2023-02-21T05:14:20.376Z,5.63
2023-02-21T05:15:20.331Z,5.85
2023-02-21T05:16:20.434Z,6.29
2023-02-21T05:17:20.323Z,5.87
2023-02-21T05:18:20.302Z,5.73
2023-02-21T05:19:20.329Z,6.75
2023-02-21T05:20:20.322Z,5.66
2023-02-21T05:21:20.304Z,5.59
2023-02-21T05:22:20.358Z,5.46
2023-02-21T05:23:20.317Z,5.30
2023-02-21T05:24:20.277Z,5.37
2023-02-21T05:25:20.294Z,5.61
2023-02-21T05:26:20.279Z,5.73
2023-02-21T05:27:20.264Z,5.18
2023-02-21T05:28:20.280Z,6.21
2023-02-21T05:29:20.326Z,5.37
2023-02-21T05:30:20.315Z,5.82
2023-02-21T05:31:20.294Z,5.71
2023-02-21T05:32:20.256Z,6.00
2023-02-21T05:33:20.250Z,5.22
2023-02-21T05:34:20.292Z,5.91
2023-02-21T05:35:20.321Z,5.69
2023-02-21T05:36:20.340Z,6.06
2023-02-21T05:37:20.329Z,5.55
2023-02-21T05:38:20.372Z,5.87
2023-02-21T05:39:20.482Z,5.67
2023-02-21T05:40:20.419Z,5.59
2023-02-21T05:41:20.416Z,5.46
2023-02-21T05:42:20.436Z,5.71
2023-02-21T05:43:20.523Z,5.68
2023-02-21T05:44:20.550Z,6.33
2023-02-21T05:45:20.587Z,5.54
2023-02-21T05:46:20.646Z,5.75
2023-02-21T05:47:20.630Z,5.29
2023-02-21T05:48:20.687Z,5.41
2023-02-21T05:49:20.719Z,5.89
2023-02-21T05:50:20.744Z,5.91
2023-02-21T05:51:20.772Z,5.55
2023-02-21T05:52:20.821Z,5.44
2023-02-21T05:53:20.835Z,5.70
2023-02-21T05:54:20.922Z,5.90
2023-02-21T05:55:20.899Z,5.87
2023-02-21T05:56:20.951Z,5.84
2023-02-21T05:57:20.966Z,6.05
2023-02-21T05:58:21.018Z,5.23
2023-02-21T05:59:21.033Z,5.64
2023-02-21T06:00:21.065Z,5.63
2023-02-21T06:01:28.382Z,5.85
2023-02-21T06:02:21.121Z,5.50
2023-02-21T06:03:21.092Z,5.58
2023-02-21T06:04:21.056Z,5.09
2023-02-21T06:05:21.067Z,5.39
2023-02-21T06:06:21.061Z,4.76
2023-02-21T06:07:21.053Z,4.89
2023-02-21T06:08:21.049Z,5.08
2023-02-21T06:09:21.023Z,4.90
2023-02-21T06:10:21.029Z,5.37
2023-02-21T06:11:21.004Z,5.87
2023-02-21T06:12:21.004Z,5.08
2023-02-21T06:13:21.000Z,5.50
2023-02-21T06:14:21.064Z,5.13
2023-02-21T06:15:20.989Z,5.11
2023-02-21T06:16:20.991Z,5.67
2023-02-21T06:17:21.384Z,4.71
2023-02-21T06:18:20.974Z,5.48
2023-02-21T06:19:20.983Z,5.24
2023-02-21T06:20:20.996Z,5.65
2023-02-21T06:21:21.004Z,4.96
2023-02-21T06:22:20.998Z,5.65
2023-02-21T06:23:21.033Z,4.86
2023-02-21T06:24:21.079Z,5.27
2023-02-21T06:25:21.131Z,5.24
2023-02-21T06:26:21.160Z,4.78
2023-02-21T06:27:21.255Z,4.98
2023-02-21T06:28:21.289Z,5.28
2023-02-21T06:29:21.360Z,5.09
2023-02-21T06:30:23.185Z,6.05
2023-02-21T06:31:21.514Z,5.57
2023-02-21T06:32:21.885Z,5.33
2023-02-21T06:33:21.589Z,5.48
2023-02-21T06:34:21.666Z,5.28
2023-02-21T06:35:21.719Z,5.54
2023-02-21T06:36:21.772Z,5.64
2023-02-21T06:37:21.890Z,5.91
2023-02-21T06:38:21.775Z,6.50
2023-02-21T06:39:21.778Z,6.69
2023-02-21T06:40:21.845Z,9.40
2023-02-21T06:41:21.897Z,6.79
2023-02-21T06:42:22.417Z,6.40
2023-02-21T06:43:21.967Z,6.40
2023-02-21T06:44:21.980Z,6.87
2023-02-21T06:45:29.048Z,10.99
2023-02-21T06:46:22.074Z,7.40
2023-02-21T06:47:22.435Z,8.59
2023-02-21T06:48:22.027Z,7.61
2023-02-21T06:49:22.026Z,7.01
2023-02-21T06:50:21.988Z,5.85
2023-02-21T06:51:21.981Z,7.15
2023-02-21T06:52:22.002Z,6.62
2023-02-21T06:53:21.971Z,6.80
2023-02-21T06:54:21.997Z,6.65
2023-02-21T06:55:24.372Z,6.57
2023-02-21T06:56:21.969Z,6.55
2023-02-21T06:57:21.960Z,6.02
2023-02-21T06:58:21.961Z,6.20
2023-02-21T06:59:21.949Z,5.58
2023-02-21T07:00:21.911Z,5.39
2023-02-21T07:01:21.975Z,5.89
2023-02-21T07:02:21.887Z,5.61
2023-02-21T07:03:21.898Z,6.25
2023-02-21T07:04:22.031Z,5.30
2023-02-21T07:05:21.916Z,5.48
2023-02-21T07:06:21.922Z,5.21
2023-02-21T07:07:21.928Z,6.20
2023-02-21T07:08:21.928Z,5.95
2023-02-21T07:09:21.882Z,5.05
2023-02-21T07:10:21.909Z,5.62
2023-02-21T07:11:21.894Z,5.03
2023-02-21T07:12:21.872Z,5.37
2023-02-21T07:13:22.686Z,5.49
2023-02-21T07:14:21.843Z,5.04
2023-02-21T07:15:21.812Z,5.10
2023-02-21T07:16:21.824Z,5.44
2023-02-21T07:17:21.822Z,5.18
2023-02-21T07:18:21.786Z,5.08
2023-02-21T07:19:21.804Z,6.04
2023-02-21T07:20:21.771Z,5.28
2023-02-21T07:21:21.829Z,5.82
2023-02-21T07:22:21.829Z,5.96
2023-02-21T07:23:21.933Z,5.83
2023-02-21T07:24:21.754Z,4.75
2023-02-21T07:25:21.839Z,5.77
2023-02-21T07:26:21.759Z,5.06
2023-02-21T07:27:21.736Z,5.25
2023-02-21T07:28:21.752Z,5.07
2023-02-21T07:29:21.790Z,4.78
2023-02-21T07:30:21.736Z,5.00
2023-02-21T07:31:22.085Z,4.68
2023-02-21T07:32:21.750Z,4.88
2023-02-21T07:33:21.700Z,5.34
2023-02-21T07:34:21.693Z,5.04
2023-02-21T07:35:21.676Z,4.47
2023-02-21T07:36:21.669Z,5.10
2023-02-21T07:37:21.645Z,5.05
2023-02-21T07:38:21.938Z,5.32
2023-02-21T07:39:21.667Z,6.30
2023-02-21T07:40:21.632Z,6.10
2023-02-21T07:41:21.648Z,5.71
2023-02-21T07:42:21.609Z,6.66
2023-02-21T07:43:21.971Z,6.35
2023-02-21T07:44:21.594Z,7.10
2023-02-21T07:45:21.592Z,6.70
2023-02-21T07:46:21.676Z,6.26
2023-02-21T07:47:21.656Z,6.07
2023-02-21T07:48:21.944Z,6.38
2023-02-21T07:49:21.673Z,5.83
2023-02-21T07:50:21.754Z,6.12
2023-02-21T07:51:21.820Z,6.50
2023-02-21T07:52:21.844Z,6.94
2023-02-21T07:53:22.044Z,6.67
2023-02-21T07:54:21.983Z,5.60
2023-02-21T07:55:21.993Z,5.53
2023-02-21T07:56:22.072Z,6.47
2023-02-21T07:57:22.016Z,5.96
2023-02-21T07:58:22.071Z,6.51
2023-02-21T07:59:22.075Z,5.47
2023-02-21T08:00:22.144Z,5.80
2023-02-21T08:01:22.168Z,5.01
2023-02-21T08:02:22.201Z,6.09
2023-02-21T08:03:22.208Z,6.18
2023-02-21T08:04:22.260Z,5.86
2023-02-21T08:05:22.263Z,5.46
2023-02-21T08:06:22.330Z,5.40
2023-02-21T08:07:22.352Z,5.41
2023-02-21T08:08:22.396Z,5.08
2023-02-21T08:09:22.418Z,5.46
2023-02-21T08:10:22.474Z,5.24
2023-02-21T08:11:22.509Z,4.97
2023-02-21T08:12:22.507Z,5.45
2023-02-21T08:13:22.600Z,5.16
2023-02-21T08:14:22.593Z,5.01
2023-02-21T08:15:22.620Z,5.23
2023-02-21T08:16:22.721Z,5.64
2023-02-21T08:17:22.704Z,5.57
2023-02-21T08:18:22.722Z,5.68
2023-02-21T08:19:22.822Z,6.24
2023-02-21T08:20:22.823Z,5.97
2023-02-21T08:21:22.863Z,6.16
2023-02-21T08:22:22.873Z,6.27
2023-02-21T08:23:22.943Z,5.99
2023-02-21T08:24:23.475Z,5.51
2023-02-21T08:25:23.062Z,5.78
2023-02-21T08:26:23.125Z,5.04
2023-02-21T08:27:23.193Z,5.56
2023-02-21T08:28:23.201Z,6.38
2023-02-21T08:29:23.200Z,6.10
2023-02-21T08:30:23.264Z,5.22
2023-02-21T08:31:23.270Z,5.00
2023-02-21T08:32:23.237Z,5.58
2023-02-21T08:33:23.445Z,5.61
2023-02-21T08:34:23.477Z,5.21
2023-02-21T08:35:23.448Z,5.42
2023-02-21T08:36:23.365Z,5.08
2023-02-21T08:37:23.424Z,5.50
2023-02-21T08:38:23.500Z,6.13
2023-02-21T08:39:23.561Z,5.98
2023-02-21T08:40:23.610Z,5.58
2023-02-21T08:41:23.612Z,6.00
2023-02-21T08:42:23.657Z,5.45
2023-02-21T08:43:24.007Z,5.62
2023-02-21T08:44:23.940Z,5.70
2023-02-21T08:45:23.745Z,5.44
2023-02-21T08:46:23.809Z,5.24
2023-02-21T08:47:23.835Z,4.77
2023-02-21T08:48:23.895Z,5.29
2023-02-21T08:49:23.944Z,5.44
2023-02-21T08:50:23.940Z,4.89
2023-02-21T08:51:23.994Z,4.72
2023-02-21T08:52:24.035Z,4.45
2023-02-21T08:53:24.049Z,3.96
2023-02-21T08:54:24.488Z,4.32
2023-02-21T08:55:24.138Z,4.15
2023-02-21T08:56:24.170Z,4.15
2023-02-21T08:57:24.200Z,4.00
2023-02-21T08:58:24.305Z,3.75
2023-02-21T08:59:24.407Z,4.31
2023-02-21T09:00:24.441Z,3.99
2023-02-21T09:01:24.538Z,4.26
2023-02-21T09:02:24.504Z,5.07
2023-02-21T09:03:24.549Z,4.15
2023-02-21T09:04:24.970Z,4.23
2023-02-21T09:05:24.673Z,4.50
2023-02-21T09:06:24.714Z,4.25
2023-02-21T09:07:24.781Z,3.56
2023-02-21T09:08:24.779Z,4.28
2023-02-21T09:09:24.808Z,4.40
2023-02-21T09:10:24.812Z,4.24
2023-02-21T09:11:24.844Z,4.60
2023-02-21T09:12:24.955Z,5.14
2023-02-21T09:13:24.895Z,4.86
2023-02-21T09:14:24.998Z,4.90
2023-02-21T09:15:24.962Z,3.95
2023-02-21T09:16:25.096Z,4.38
2023-02-21T09:17:25.011Z,4.25
2023-02-21T09:18:25.065Z,4.31
2023-02-21T09:19:25.489Z,4.37
2023-02-21T09:20:25.147Z,3.78
2023-02-21T09:21:25.159Z,4.61
2023-02-21T09:22:25.149Z,4.57
2023-02-21T09:23:25.209Z,4.54
2023-02-21T09:24:25.517Z,4.52
2023-02-21T09:25:25.264Z,4.33
2023-02-21T09:26:25.331Z,4.44
2023-02-21T09:27:25.325Z,4.12
2023-02-21T09:28:25.349Z,4.92
2023-02-21T09:29:27.875Z,4.27
2023-02-21T09:30:25.414Z,4.25
2023-02-21T09:31:25.374Z,4.31
2023-02-21T09:32:25.350Z,5.07
2023-02-21T09:33:25.451Z,4.84
2023-02-21T09:34:25.490Z,4.95
2023-02-21T09:35:25.335Z,4.24
2023-02-21T09:36:25.322Z,4.71
2023-02-21T09:37:25.293Z,3.98
2023-02-21T09:38:25.317Z,3.96
2023-02-21T09:39:25.272Z,4.06
2023-02-21T09:40:25.272Z,4.23
2023-02-21T09:41:25.327Z,4.53
2023-02-21T09:42:25.276Z,3.67
2023-02-21T09:43:25.290Z,3.51
2023-02-21T09:44:25.478Z,4.41
2023-02-21T09:45:25.255Z,3.56
2023-02-21T09:46:25.220Z,4.02
2023-02-21T09:47:25.258Z,3.11
2023-02-21T09:48:25.274Z,3.66
2023-02-21T09:49:25.529Z,3.77
2023-02-21T09:50:25.209Z,3.95
2023-02-21T09:51:25.248Z,3.91
2023-02-21T09:52:25.239Z,4.24
2023-02-21T09:53:25.261Z,3.50
2023-02-21T09:54:25.168Z,3.64
2023-02-21T09:55:25.478Z,3.31
2023-02-21T09:56:25.222Z,3.33
2023-02-21T09:57:25.166Z,3.43
2023-02-21T09:58:25.127Z,4.01
2023-02-21T09:59:25.133Z,2.81
2023-02-21T10:00:25.473Z,3.42
2023-02-21T10:01:25.204Z,3.25
2023-02-21T10:02:25.205Z,2.69
2023-02-21T10:03:25.108Z,2.98
2023-02-21T10:04:25.125Z,3.04
2023-02-21T10:05:25.137Z,2.36
2023-02-21T10:06:25.128Z,2.63
2023-02-21T10:07:25.128Z,2.94
2023-02-21T10:08:25.165Z,3.16
2023-02-21T10:09:25.151Z,2.83
2023-02-21T10:10:25.191Z,2.68
2023-02-21T10:11:25.288Z,2.86
2023-02-21T10:12:25.255Z,2.58
2023-02-21T10:13:25.225Z,2.87
2023-02-21T10:14:25.274Z,3.18
2023-02-21T10:15:25.276Z,2.54
2023-02-21T10:16:25.373Z,2.90
2023-02-21T10:17:25.293Z,2.44
2023-02-21T10:18:25.315Z,2.83
2023-02-21T10:19:25.340Z,2.61
2023-02-21T10:20:25.394Z,2.92
2023-02-21T10:21:25.418Z,2.55
2023-02-21T10:22:25.494Z,2.39
2023-02-21T10:23:25.692Z,2.90
2023-02-21T10:24:25.686Z,2.47
2023-02-21T10:25:26.035Z,2.82
2023-02-21T10:26:25.720Z,2.63
2023-02-21T10:27:25.765Z,3.25
2023-02-21T10:28:25.856Z,2.59
2023-02-21T10:29:25.971Z,2.40
2023-02-21T10:30:26.114Z,2.63
2023-02-21T10:31:26.079Z,2.87
2023-02-21T10:32:26.107Z,2.83
2023-02-21T10:33:26.179Z,2.86
2023-02-21T10:34:26.207Z,2.88
2023-02-21T10:35:26.552Z,2.75
2023-02-21T10:36:26.314Z,2.45
2023-02-21T10:37:26.441Z,3.05
2023-02-21T10:38:26.472Z,2.40
2023-02-21T10:39:26.427Z,2.40
2023-02-21T10:40:26.557Z,2.34
2023-02-21T10:41:26.544Z,2.69
2023-02-21T10:42:26.612Z,2.71
2023-02-21T10:43:26.596Z,3.00
2023-02-21T10:44:26.646Z,2.64
2023-02-21T10:45:26.636Z,3.10
2023-02-21T10:46:26.704Z,3.00
2023-02-21T10:47:26.650Z,2.66
2023-02-21T10:48:26.647Z,2.67
2023-02-21T10:49:26.659Z,2.46
2023-02-21T10:50:26.751Z,2.26
2023-02-21T10:51:27.058Z,2.82
2023-02-21T10:52:26.881Z,2.65
2023-02-21T10:53:26.948Z,2.68
2023-02-21T10:54:26.952Z,2.46
2023-02-21T10:55:33.243Z,3.94
2023-02-21T10:56:28.105Z,2.74
2023-02-21T10:57:26.985Z,2.66
2023-02-21T10:58:27.017Z,2.72
2023-02-21T10:59:27.026Z,2.41
2023-02-21T11:00:26.982Z,2.49
2023-02-21T11:01:27.031Z,2.61
2023-02-21T11:02:27.051Z,2.64
2023-02-21T11:03:26.970Z,2.55
2023-02-21T11:04:27.033Z,2.58
2023-02-21T11:06:28.062Z,2.67
2023-02-21T11:07:27.066Z,2.88
2023-02-21T11:08:27.109Z,2.67
2023-02-21T11:09:27.145Z,2.40
2023-02-21T11:10:27.157Z,2.56
2023-02-21T11:12:27.210Z,2.51
2023-02-21T11:38:28.614Z,2.48
2023-02-21T11:40:28.129Z,3.20
2023-02-21T11:41:28.552Z,3.28
2023-02-21T11:42:28.239Z,2.73
2023-02-21T11:43:28.263Z,2.50
2023-02-21T12:08:29.078Z,1.94
2023-02-21T12:09:29.105Z,2.36
2023-02-21T14:55:35.084Z,1.85
2023-02-21T14:56:35.104Z,1.34
2023-02-21T14:57:35.207Z,1.47
2023-02-21T14:58:35.232Z,1.97
2023-02-21T14:59:35.268Z,1.80
2023-02-21T15:00:35.295Z,1.68
2023-02-21T15:01:35.428Z,1.50
2023-02-21T15:02:35.439Z,1.56
2023-02-21T15:03:35.507Z,1.69
2023-02-21T15:04:35.630Z,1.62
2023-02-21T15:05:35.981Z,1.71
2023-02-21T15:06:35.623Z,1.65
2023-02-21T15:07:35.667Z,1.70
2023-02-21T15:08:35.695Z,1.30
2023-02-21T15:09:35.832Z,1.36
2023-02-21T15:10:35.854Z,1.50
2023-02-21T15:11:35.880Z,1.80
2023-02-21T15:12:35.969Z,1.63
2023-02-21T15:13:36.063Z,1.53
2023-02-21T15:14:36.086Z,1.56
2023-02-21T15:15:36.099Z,1.85
2023-02-21T15:16:36.174Z,1.57
2023-02-21T15:17:36.204Z,1.75
2023-02-21T15:18:36.326Z,1.48
2023-02-21T15:19:36.341Z,1.63
2023-02-21T15:20:36.365Z,1.63
2023-02-21T15:21:36.437Z,1.68
2023-02-21T15:22:36.480Z,1.60
2023-02-21T15:23:36.548Z,1.72
2023-02-21T15:24:36.583Z,1.89
2023-02-21T15:25:36.627Z,1.49
2023-02-21T15:26:36.755Z,1.28
2023-02-21T15:27:36.784Z,1.55
2023-02-21T15:28:36.820Z,1.64
2023-02-21T15:29:36.914Z,1.50
2023-02-21T15:30:37.074Z,1.47
2023-02-21T15:31:37.069Z,1.98
2023-02-21T15:32:37.054Z,1.64
2023-02-21T15:33:37.136Z,1.41
2023-02-21T15:34:37.198Z,1.56
2023-02-21T15:35:37.242Z,1.55
2023-02-21T15:36:37.299Z,1.76
2023-02-21T15:37:37.407Z,1.87
2023-02-21T15:38:37.446Z,1.65
2023-02-21T15:39:37.496Z,1.67
2023-02-21T15:40:37.555Z,1.90
2023-02-21T15:41:37.624Z,1.57
2023-02-21T15:42:37.678Z,2.00
2023-02-21T15:43:37.772Z,1.86
2023-02-21T15:44:37.847Z,2.07
2023-02-21T15:45:37.914Z,2.04
2023-02-21T15:46:37.941Z,1.66
2023-02-21T15:47:37.981Z,1.42
2023-02-21T15:48:38.025Z,2.02
2023-02-21T15:49:38.071Z,1.96
2023-02-21T15:50:38.168Z,1.58
2023-02-21T15:51:38.167Z,1.58
2023-02-21T15:52:38.219Z,1.53
2023-02-21T15:53:38.295Z,1.84
2023-02-21T15:54:38.344Z,1.52
2023-02-21T15:55:38.406Z,1.73
2023-02-21T15:56:38.461Z,2.03
2023-02-21T15:57:38.470Z,1.92
2023-02-21T15:58:38.528Z,2.09
2023-02-21T15:59:38.532Z,1.67
2023-02-21T16:00:38.601Z,1.64
2023-02-21T16:01:38.714Z,1.89
2023-02-21T16:02:38.647Z,1.58
2023-02-21T16:03:38.666Z,1.58
2023-02-21T16:04:38.715Z,2.17
2023-02-21T16:05:38.746Z,1.52
2023-02-21T16:06:38.792Z,1.77
2023-02-21T16:07:38.793Z,2.08
2023-02-21T16:08:38.809Z,1.81
2023-02-21T16:09:38.839Z,1.89
2023-02-21T16:10:38.844Z,1.63
2023-02-21T16:11:38.881Z,1.91
2023-02-21T16:12:38.948Z,1.94
2023-02-21T16:13:38.920Z,1.92
2023-02-21T16:14:38.945Z,1.66
2023-02-21T16:15:38.935Z,1.71
2023-02-21T16:16:38.936Z,2.06
2023-02-21T16:17:38.921Z,1.76
2023-02-21T16:18:38.940Z,2.00
2023-02-21T16:19:38.954Z,1.69
2023-02-21T16:20:38.902Z,1.67
2023-02-21T16:21:38.947Z,1.65
2023-02-21T16:22:59.508Z,1.71
2023-02-21T16:23:39.974Z,1.73
2023-02-21T16:24:38.952Z,1.78
2023-02-21T16:25:38.934Z,1.55
2023-02-21T16:26:38.923Z,2.05
2023-02-21T16:27:38.937Z,2.15
2023-02-21T16:28:38.907Z,1.76
2023-02-21T16:29:38.906Z,1.69
2023-02-21T16:30:38.980Z,1.94
2023-02-21T16:31:38.978Z,1.80
2023-02-21T16:32:38.866Z,1.95
2023-02-21T16:33:38.871Z,1.94
2023-02-21T16:34:38.886Z,1.81
2023-02-21T16:35:38.860Z,1.58
2023-02-21T16:36:38.823Z,1.99
2023-02-21T16:37:38.859Z,1.95
2023-02-21T16:38:38.853Z,2.25
2023-02-21T16:44:38.773Z,1.72
2023-02-21T16:45:38.809Z,1.71
2023-02-21T16:46:38.908Z,1.92
2023-02-21T16:48:38.849Z,2.29
2023-02-21T16:49:38.889Z,1.76
2023-02-21T16:50:38.846Z,1.95
2023-02-21T16:51:38.874Z,2.21
2023-02-21T16:52:38.867Z,1.79
2023-02-21T16:53:38.874Z,1.60
2023-02-21T16:54:38.870Z,2.11
2023-02-21T16:55:38.876Z,2.14
2023-02-21T16:56:38.889Z,1.78
2023-02-21T16:57:38.942Z,1.80
2023-02-21T16:58:38.922Z,1.93
2023-02-21T16:59:38.954Z,2.05
2023-02-21T17:00:38.906Z,1.92
2023-02-21T17:01:38.996Z,1.72
2023-02-21T17:02:38.995Z,2.23
2023-02-21T17:03:38.986Z,2.03
2023-02-21T17:04:38.969Z,2.19
2023-02-21T17:05:38.989Z,1.81
2023-02-21T17:06:39.027Z,1.76
2023-02-21T17:07:38.997Z,1.76
2023-02-21T17:08:39.003Z,2.18
2023-02-21T17:09:39.036Z,1.79
2023-02-21T17:10:39.031Z,2.09
2023-02-21T17:11:39.044Z,1.96
2023-02-21T17:12:39.052Z,1.64
2023-02-21T17:13:39.060Z,1.80
2023-02-21T17:14:39.039Z,1.84
2023-02-21T17:15:39.081Z,2.10
2023-02-21T17:16:39.068Z,1.96
2023-02-21T17:17:39.147Z,1.77
2023-02-21T17:18:39.123Z,2.13
2023-02-21T17:19:39.076Z,2.10
2023-02-21T17:20:39.139Z,2.60
2023-02-21T17:21:39.121Z,2.21
2023-02-21T17:22:39.144Z,2.34
2023-02-21T17:23:39.136Z,2.26
2023-02-21T17:24:39.138Z,2.05
2023-02-21T17:25:39.153Z,2.12
2023-02-21T17:26:39.205Z,2.13
2023-02-21T17:27:39.209Z,2.24
2023-02-21T17:28:39.222Z,2.35
2023-02-21T17:29:39.256Z,2.50
2023-02-21T17:30:39.410Z,2.60
2023-02-21T17:31:39.344Z,2.26
2023-02-21T17:32:39.308Z,2.71
2023-02-21T17:33:39.284Z,3.13
2023-02-21T17:34:39.326Z,2.79
2023-02-21T17:35:39.345Z,2.35
2023-02-21T17:36:39.362Z,2.83
2023-02-21T17:37:39.348Z,3.06
2023-02-21T17:38:39.419Z,2.87
2023-02-21T17:39:39.432Z,2.76
2023-02-21T17:40:39.468Z,3.21
2023-02-21T17:41:39.435Z,3.27
2023-02-21T17:42:39.457Z,3.58
2023-02-21T17:43:39.530Z,3.68
2023-02-21T17:44:39.528Z,3.21
2023-02-21T17:45:39.522Z,3.30
2023-02-21T17:46:39.738Z,3.78
2023-02-21T17:47:39.569Z,3.72
2023-02-21T17:48:39.608Z,3.43
2023-02-21T17:49:39.624Z,3.76
2023-02-21T17:50:39.657Z,4.46
2023-02-21T17:51:39.680Z,3.73
2023-02-21T17:52:39.677Z,3.89
2023-02-21T17:53:39.730Z,3.95
2023-02-21T17:54:39.750Z,4.25
2023-02-21T17:55:39.775Z,4.51
2023-02-21T17:56:39.784Z,3.93
2023-02-21T17:57:39.792Z,4.73
2023-02-21T17:58:39.962Z,4.55
2023-02-21T17:59:39.873Z,4.80
2023-02-21T18:00:39.876Z,4.74
2023-02-21T18:01:39.955Z,4.60
2023-02-21T18:02:39.937Z,4.44
2023-02-21T18:03:39.968Z,4.69
2023-02-21T18:04:39.989Z,4.74
2023-02-21T18:05:40.035Z,4.96
2023-02-21T18:06:40.026Z,5.58
2023-02-21T18:07:40.035Z,4.65
2023-02-21T18:08:40.072Z,5.02
2023-02-21T18:09:40.089Z,5.03
2023-02-21T18:10:40.117Z,4.70
2023-02-21T18:11:40.181Z,5.09
2023-02-21T18:12:40.175Z,5.47
2023-02-21T18:13:40.211Z,5.11
2023-02-21T18:14:40.227Z,4.83
2023-02-21T18:15:40.253Z,4.92
2023-02-21T18:16:40.294Z,5.38
2023-02-21T18:17:40.350Z,5.74
2023-02-21T18:18:40.345Z,5.96
2023-02-21T18:19:40.434Z,5.24
2023-02-21T18:20:40.428Z,5.11
2023-02-21T18:21:40.465Z,5.30
2023-02-21T18:22:40.500Z,5.20
2023-02-21T18:23:40.556Z,4.62
2023-02-21T18:24:40.547Z,5.58
2023-02-21T18:25:40.600Z,5.76
2023-02-21T18:26:40.636Z,5.56
2023-02-21T18:27:40.693Z,5.36
2023-02-21T18:28:40.692Z,5.70
2023-02-21T18:29:40.741Z,5.51
2023-02-21T18:30:40.827Z,5.56
2023-02-21T18:31:40.860Z,5.25
2023-02-21T18:32:40.826Z,5.44
2023-02-21T18:33:40.885Z,5.19
2023-02-21T18:34:40.876Z,5.87
2023-02-21T18:35:40.933Z,5.47
2023-02-21T18:36:41.110Z,5.76
2023-02-21T18:37:41.007Z,5.53
2023-02-21T18:38:41.080Z,5.76
2023-02-21T18:39:41.087Z,4.89
2023-02-21T18:40:41.141Z,5.25
2023-02-21T18:41:41.198Z,5.63
2023-02-21T18:42:41.212Z,5.81
2023-02-21T18:43:41.303Z,5.48
2023-02-21T18:44:41.317Z,5.78
2023-02-21T18:45:41.364Z,5.64
2023-02-21T18:46:41.439Z,5.71
2023-02-21T18:47:41.480Z,5.28
2023-02-21T18:48:41.541Z,5.29
2023-02-21T18:49:41.547Z,5.92
2023-02-21T18:50:41.657Z,5.64
2023-02-21T18:51:41.674Z,5.63
2023-02-21T18:52:41.724Z,5.53
2023-02-21T18:53:41.742Z,5.51
2023-02-21T18:54:41.842Z,5.80
2023-02-21T18:55:41.893Z,5.58
2023-02-21T18:56:41.947Z,5.07
2023-02-21T18:57:41.977Z,5.48
2023-02-21T18:58:42.034Z,5.22
2023-02-21T18:59:42.127Z,5.53
2023-02-21T19:00:42.172Z,5.35
2023-02-21T19:01:42.205Z,5.11
2023-02-21T19:02:42.240Z,5.12
2023-02-21T19:03:42.359Z,5.54
2023-02-21T19:04:42.357Z,5.70
2023-02-21T19:05:42.426Z,6.19
2023-02-21T19:06:42.469Z,5.43
2023-02-21T19:07:42.542Z,5.70
2023-02-21T19:08:42.592Z,5.25
2023-02-21T19:09:42.673Z,5.37
2023-02-21T19:10:42.715Z,6.64
2023-02-21T19:11:42.794Z,5.80
2023-02-21T19:12:42.877Z,5.41
2023-02-21T19:13:42.927Z,5.54
2023-02-21T19:14:42.970Z,5.52
2023-02-21T19:15:43.071Z,5.46
2023-02-21T19:16:43.165Z,5.84
2023-02-21T19:17:43.179Z,6.19
2023-02-21T19:18:43.168Z,5.93
2023-02-21T19:19:43.245Z,5.83
2023-02-21T19:20:43.328Z,5.97
2023-02-21T19:21:43.403Z,6.42
2023-02-21T19:22:43.436Z,6.26
2023-02-21T19:23:43.488Z,5.95
2023-02-21T19:24:43.547Z,6.31
2023-02-21T19:25:43.591Z,6.35
2023-02-21T19:26:43.673Z,6.54
2023-02-21T19:27:43.745Z,6.23
2023-02-21T19:28:43.809Z,6.36
2023-02-21T19:29:43.825Z,6.21
2023-02-21T19:30:43.960Z,6.16
2023-02-21T19:31:44.095Z,6.62
2023-02-21T19:32:44.041Z,6.07
2023-02-21T19:33:44.107Z,6.14
2023-02-21T19:34:44.131Z,6.47
2023-02-21T19:35:44.220Z,6.04
2023-02-21T19:36:44.295Z,5.90
2023-02-21T19:37:44.360Z,7.01
2023-02-21T19:38:44.429Z,6.29
2023-02-21T19:39:44.474Z,6.39
2023-02-21T19:40:44.553Z,6.71
2023-02-21T19:41:44.585Z,6.76
2023-02-21T19:42:44.673Z,6.66
2023-02-21T19:43:44.704Z,7.18
2023-02-21T19:44:44.760Z,6.90
2023-02-21T19:45:44.861Z,7.07
2023-02-21T19:46:44.854Z,7.37
2023-02-21T19:47:44.957Z,6.60
2023-02-21T19:48:45.038Z,7.74
2023-02-21T19:49:45.082Z,7.52
2023-02-21T19:50:45.136Z,7.70
2023-02-21T19:51:45.180Z,7.60
2023-02-21T19:52:47.437Z,8.82
2023-02-21T19:53:45.324Z,7.78
2023-02-21T19:54:45.377Z,8.92
2023-02-21T19:55:45.429Z,8.48
2023-02-21T19:56:45.475Z,7.98
2023-02-21T19:57:45.596Z,8.91
2023-02-21T19:58:45.624Z,9.22
2023-02-21T19:59:45.700Z,8.78
2023-02-21T20:00:45.855Z,8.76
2023-02-21T20:01:45.815Z,9.71
2023-02-21T20:02:45.870Z,9.49
2023-02-21T20:03:46.094Z,8.96
2023-02-21T20:04:45.999Z,9.56
2023-02-21T20:05:46.059Z,8.88
2023-02-21T20:06:46.113Z,8.80
2023-02-21T20:07:46.158Z,9.10
2023-02-21T20:08:46.259Z,8.89
2023-02-21T20:09:47.976Z,8.62
2023-02-21T20:10:46.364Z,9.73
2023-02-21T20:11:46.401Z,9.24
2023-02-21T20:12:46.496Z,9.27
2023-02-21T20:13:46.585Z,8.99
2023-02-21T20:14:46.633Z,9.91
2023-02-21T20:15:46.658Z,9.49
2023-02-21T20:16:46.787Z,9.81
2023-02-21T20:17:46.787Z,9.06
2023-02-21T20:18:46.860Z,8.93
2023-02-21T20:19:46.891Z,9.21
2023-02-21T20:20:46.975Z,10.05
2023-02-21T20:21:47.033Z,9.35
2023-02-21T20:22:47.089Z,8.70
2023-02-21T20:23:47.160Z,9.65
2023-02-21T20:24:47.169Z,9.97
2023-02-21T20:25:47.258Z,9.19
2023-02-21T20:26:47.280Z,9.34
2023-02-21T20:27:47.361Z,9.12
2023-02-21T20:28:47.447Z,9.81
2023-02-21T20:29:47.517Z,9.05
2023-02-21T20:30:47.654Z,10.46
2023-02-21T20:31:47.737Z,8.67
2023-02-21T20:32:47.656Z,9.61
2023-02-21T20:33:47.726Z,9.24
2023-02-21T20:34:47.748Z,9.62
2023-02-21T20:35:47.819Z,9.64
2023-02-21T20:36:47.852Z,9.51
2023-02-21T20:37:47.914Z,10.06
2023-02-21T20:38:47.968Z,9.22
2023-02-21T20:39:48.029Z,10.40
2023-02-21T20:40:48.115Z,9.91
2023-02-21T20:41:48.146Z,10.08
2023-02-21T20:42:48.220Z,9.82
2023-02-21T20:43:48.249Z,9.40
2023-02-21T20:44:48.430Z,9.53
2023-02-21T20:45:48.381Z,9.15
2023-02-21T20:46:48.405Z,10.13
2023-02-21T20:47:48.463Z,9.34
2023-02-21T20:48:48.800Z,9.81
2023-02-21T20:49:48.583Z,9.14
2023-02-21T20:50:48.615Z,9.81
2023-02-21T20:51:48.639Z,9.78
2023-02-21T20:52:48.721Z,9.15
2023-02-21T20:53:48.770Z,9.18
2023-02-21T20:54:48.817Z,9.29
2023-02-21T20:55:48.904Z,9.39
2023-02-21T20:56:48.877Z,9.29
2023-02-21T20:57:48.967Z,9.81
2023-02-21T20:58:49.028Z,9.05
2023-02-21T20:59:49.041Z,9.57
2023-02-21T21:00:49.093Z,9.62
2023-02-21T21:01:49.252Z,8.76
2023-02-21T21:02:49.213Z,9.27
2023-02-21T21:03:49.206Z,9.53
2023-02-21T21:04:49.259Z,9.39
2023-02-21T21:05:49.299Z,9.57
2023-02-21T21:06:49.321Z,10.16
2023-02-21T21:07:49.306Z,9.57
2023-02-21T21:08:49.362Z,9.68
2023-02-21T21:09:49.410Z,8.52
2023-02-21T21:10:49.434Z,9.07
2023-02-21T21:11:49.472Z,9.76
2023-02-21T21:12:49.468Z,9.31
2023-02-21T21:13:49.492Z,9.90
2023-02-21T21:14:49.493Z,9.64
2023-02-21T21:15:49.545Z,10.01
2023-02-21T21:16:49.555Z,9.03
2023-02-21T21:17:49.514Z,9.38
2023-02-21T21:18:49.582Z,9.22
2023-02-21T21:19:49.600Z,9.62
2023-02-21T21:20:49.641Z,8.86
2023-02-21T21:21:49.611Z,9.36
2023-02-21T21:22:49.610Z,9.19
2023-02-21T21:23:49.636Z,9.43
2023-02-21T21:24:49.626Z,9.33
2023-02-21T21:25:49.631Z,8.61
2023-02-21T21:26:49.778Z,8.97
2023-02-21T21:27:49.659Z,9.24
2023-02-21T21:28:49.687Z,9.13
2023-02-21T21:29:49.673Z,9.03
2023-02-21T21:30:49.693Z,9.33
2023-02-21T21:31:49.757Z,8.72
2023-02-21T21:32:49.746Z,8.94
2023-02-21T21:33:49.748Z,8.03
2023-02-21T21:34:49.791Z,9.07
2023-02-21T21:35:49.841Z,8.64
2023-02-21T21:36:49.882Z,8.49
2023-02-21T21:37:49.897Z,9.73
2023-02-21T21:38:49.887Z,8.32
2023-02-21T21:39:49.910Z,9.03
2023-02-21T21:40:49.964Z,8.29
2023-02-21T21:41:50.024Z,9.19
2023-02-21T21:42:50.002Z,8.67
2023-02-21T21:43:50.060Z,7.92
2023-02-21T21:44:50.043Z,8.42
2023-02-21T21:45:50.142Z,9.44
2023-02-21T21:46:50.058Z,8.37
2023-02-21T21:47:50.072Z,9.20
2023-02-21T21:48:50.128Z,9.17
2023-02-21T21:49:50.130Z,7.80
2023-02-21T21:50:50.175Z,8.60
2023-02-21T21:51:50.157Z,8.73
2023-02-21T21:52:50.195Z,8.97
2023-02-21T21:53:50.183Z,8.96
2023-02-21T21:54:50.250Z,8.70
2023-02-21T21:55:50.224Z,8.11
2023-02-21T21:56:50.259Z,9.12
2023-02-21T21:57:50.298Z,8.36
2023-02-21T21:58:50.289Z,8.04
2023-02-21T21:59:50.323Z,7.94
2023-02-21T22:00:50.321Z,8.74
2023-02-21T22:01:50.344Z,8.09
2023-02-21T22:02:50.398Z,8.52